sensor_id;sensor_type;location;lat;lon;timestamp;temperature;humidity
75170;SHT31;63749;49.186;9.222;2023-02-15T00:01:49;1.63;94.55
75170;SHT31;63749;49.186;9.222;2023-02-15T00:04:16;1.62;94.43
75170;SHT31;63749;49.186;9.222;2023-02-15T00:06:43;1.70;94.26
75170;SHT31;63749;49.186;9.222;2023-02-15T00:09:10;1.66;93.89
75170;SHT31;63749;49.186;9.222;2023-02-15T00:11:36;1.59;94.26
75170;SHT31;63749;49.186;9.222;2023-02-15T00:16:35;1.45;94.83
75170;SHT31;63749;49.186;9.222;2023-02-15T00:19:01;1.53;94.54
75170;SHT31;63749;49.186;9.222;2023-02-15T00:21:30;1.50;94.71
75170;SHT31;63749;49.186;9.222;2023-02-15T00:23:57;1.45;94.66
75170;SHT31;63749;49.186;9.222;2023-02-15T00:26:23;1.55;93.98
75170;SHT31;63749;49.186;9.222;2023-02-15T00:28:48;1.46;94.02
75170;SHT31;63749;49.186;9.222;2023-02-15T00:31:14;1.39;94.33
75170;SHT31;63749;49.186;9.222;2023-02-15T00:33:40;1.38;94.42
75170;SHT31;63749;49.186;9.222;2023-02-15T00:36:08;1.46;94.27
75170;SHT31;63749;49.186;9.222;2023-02-15T00:38:34;1.48;93.96
75170;SHT31;63749;49.186;9.222;2023-02-15T00:41:03;1.45;93.82
75170;SHT31;63749;49.186;9.222;2023-02-15T00:43:30;1.45;93.56
75170;SHT31;63749;49.186;9.222;2023-02-15T00:45:56;1.39;93.77
75170;SHT31;63749;49.186;9.222;2023-02-15T00:48:21;1.38;93.70
75170;SHT31;63749;49.186;9.222;2023-02-15T00:50:52;1.45;93.53
75170;SHT31;63749;49.186;9.222;2023-02-15T00:53:18;1.40;93.46
75170;SHT31;63749;49.186;9.222;2023-02-15T00:55:43;1.36;93.34
75170;SHT31;63749;49.186;9.222;2023-02-15T00:58:10;1.32;93.22
75170;SHT31;63749;49.186;9.222;2023-02-15T01:00:36;1.27;93.45
75170;SHT31;63749;49.186;9.222;2023-02-15T01:03:02;1.21;93.29
75170;SHT31;63749;49.186;9.222;2023-02-15T01:05:28;1.25;93.34
75170;SHT31;63749;49.186;9.222;2023-02-15T01:07:55;1.15;93.36
75170;SHT31;63749;49.186;9.222;2023-02-15T01:10:20;1.07;93.64
75170;SHT31;63749;49.186;9.222;2023-02-15T01:12:46;1.12;93.72
75170;SHT31;63749;49.186;9.222;2023-02-15T01:15:11;1.05;93.60
75170;SHT31;63749;49.186;9.222;2023-02-15T01:17:36;1.11;93.29
75170;SHT31;63749;49.186;9.222;2023-02-15T01:20:02;1.08;93.47
75170;SHT31;63749;49.186;9.222;2023-02-15T01:22:28;1.08;93.21
75170;SHT31;63749;49.186;9.222;2023-02-15T01:24:53;1.01;93.30
75170;SHT31;63749;49.186;9.222;2023-02-15T01:27:19;1.17;92.75
75170;SHT31;63749;49.186;9.222;2023-02-15T01:29:44;1.17;92.93
75170;SHT31;63749;49.186;9.222;2023-02-15T01:32:09;1.18;92.80
75170;SHT31;63749;49.186;9.222;2023-02-15T01:34:35;1.24;92.63
75170;SHT31;63749;49.186;9.222;2023-02-15T01:37:02;1.15;92.37
75170;SHT31;63749;49.186;9.222;2023-02-15T01:39:27;0.99;92.85
75170;SHT31;63749;49.186;9.222;2023-02-15T01:41:53;0.84;93.07
75170;SHT31;63749;49.186;9.222;2023-02-15T01:47:34;0.94;93.06
75170;SHT31;63749;49.186;9.222;2023-02-15T01:50:21;0.80;93.37
75170;SHT31;63749;49.186;9.222;2023-02-15T01:53:12;0.88;93.26
75170;SHT31;63749;49.186;9.222;2023-02-15T01:56:08;0.97;92.96
75170;SHT31;63749;49.186;9.222;2023-02-15T01:58:34;0.95;92.83
75170;SHT31;63749;49.186;9.222;2023-02-15T02:01:00;0.97;92.87
75170;SHT31;63749;49.186;9.222;2023-02-15T02:06:29;0.91;92.86
75170;SHT31;63749;49.186;9.222;2023-02-15T02:08:55;0.95;92.92
75170;SHT31;63749;49.186;9.222;2023-02-15T02:11:21;0.80;92.94
75170;SHT31;63749;49.186;9.222;2023-02-15T02:13:47;0.92;92.77
75170;SHT31;63749;49.186;9.222;2023-02-15T02:16:21;0.94;92.65
75170;SHT31;63749;49.186;9.222;2023-02-15T02:28:12;0.78;92.84
75170;SHT31;63749;49.186;9.222;2023-02-15T02:30:49;0.80;92.79
75170;SHT31;63749;49.186;9.222;2023-02-15T02:35:55;0.77;92.91
75170;SHT31;63749;49.186;9.222;2023-02-15T02:41:24;0.91;92.58
75170;SHT31;63749;49.186;9.222;2023-02-15T02:44:13;0.90;92.54
75170;SHT31;63749;49.186;9.222;2023-02-15T02:46:50;0.95;92.28
75170;SHT31;63749;49.186;9.222;2023-02-15T02:49:17;0.90;92.53
75170;SHT31;63749;49.186;9.222;2023-02-15T02:51:42;0.90;92.40
75170;SHT31;63749;49.186;9.222;2023-02-15T02:54:10;0.98;92.13
75170;SHT31;63749;49.186;9.222;2023-02-15T02:56:43;0.97;92.12
75170;SHT31;63749;49.186;9.222;2023-02-15T02:59:16;1.05;91.74
75170;SHT31;63749;49.186;9.222;2023-02-15T03:01:52;0.98;91.64
75170;SHT31;63749;49.186;9.222;2023-02-15T03:04:29;1.01;91.47
75170;SHT31;63749;49.186;9.222;2023-02-15T03:07:02;0.98;91.48
75170;SHT31;63749;49.186;9.222;2023-02-15T03:09:45;1.11;90.92
75170;SHT31;63749;49.186;9.222;2023-02-15T03:12:17;1.02;91.17
75170;SHT31;63749;49.186;9.222;2023-02-15T03:14:47;1.01;91.13
75170;SHT31;63749;49.186;9.222;2023-02-15T03:17:14;1.01;90.96
75170;SHT31;63749;49.186;9.222;2023-02-15T03:19:40;0.95;91.31
75170;SHT31;63749;49.186;9.222;2023-02-15T03:22:13;0.81;91.69
75170;SHT31;63749;49.186;9.222;2023-02-15T03:24:58;0.80;91.85
75170;SHT31;63749;49.186;9.222;2023-02-15T03:27:30;0.68;92.05
75170;SHT31;63749;49.186;9.222;2023-02-15T03:29:59;0.64;92.10
75170;SHT31;63749;49.186;9.222;2023-02-15T03:32:28;0.59;92.48
75170;SHT31;63749;49.186;9.222;2023-02-15T03:34:56;0.64;92.21
75170;SHT31;63749;49.186;9.222;2023-02-15T03:40:09;0.56;92.15
75170;SHT31;63749;49.186;9.222;2023-02-15T03:43:12;0.68;91.98
75170;SHT31;63749;49.186;9.222;2023-02-15T03:45:42;0.71;91.71
75170;SHT31;63749;49.186;9.222;2023-02-15T03:48:36;0.61;91.96
75170;SHT31;63749;49.186;9.222;2023-02-15T03:51:08;0.54;91.86
75170;SHT31;63749;49.186;9.222;2023-02-15T03:53:54;0.52;92.02
75170;SHT31;63749;49.186;9.222;2023-02-15T03:56:21;0.49;92.08
75170;SHT31;63749;49.186;9.222;2023-02-15T03:58:46;0.49;92.18
75170;SHT31;63749;49.186;9.222;2023-02-15T04:01:37;0.53;92.05
75170;SHT31;63749;49.186;9.222;2023-02-15T04:06:55;0.38;92.32
75170;SHT31;63749;49.186;9.222;2023-02-15T04:09:21;0.33;92.66
75170;SHT31;63749;49.186;9.222;2023-02-15T04:12:05;0.33;92.56
75170;SHT31;63749;49.186;9.222;2023-02-15T04:14:31;0.36;92.55
75170;SHT31;63749;49.186;9.222;2023-02-15T04:17:15;0.33;92.48
75170;SHT31;63749;49.186;9.222;2023-02-15T04:19:40;0.30;92.68
75170;SHT31;63749;49.186;9.222;2023-02-15T04:22:24;0.36;92.82
75170;SHT31;63749;49.186;9.222;2023-02-15T04:25:08;0.40;92.41
75170;SHT31;63749;49.186;9.222;2023-02-15T04:27:44;0.30;92.31
75170;SHT31;63749;49.186;9.222;2023-02-15T04:30:12;0.28;92.75
75170;SHT31;63749;49.186;9.222;2023-02-15T04:32:37;0.35;92.72
75170;SHT31;63749;49.186;9.222;2023-02-15T04:35:04;0.35;92.26
75170;SHT31;63749;49.186;9.222;2023-02-15T04:37:30;0.35;92.45
75170;SHT31;63749;49.186;9.222;2023-02-15T04:39:56;0.39;92.44
75170;SHT31;63749;49.186;9.222;2023-02-15T04:42:25;0.35;92.17
75170;SHT31;63749;49.186;9.222;2023-02-15T04:44:51;0.45;91.90
75170;SHT31;63749;49.186;9.222;2023-02-15T04:47:17;0.43;91.81
75170;SHT31;63749;49.186;9.222;2023-02-15T04:49:42;0.42;92.09
75170;SHT31;63749;49.186;9.222;2023-02-15T04:52:08;0.52;91.78
75170;SHT31;63749;49.186;9.222;2023-02-15T04:54:33;0.47;91.47
75170;SHT31;63749;49.186;9.222;2023-02-15T04:56:58;0.40;91.73
75170;SHT31;63749;49.186;9.222;2023-02-15T04:59:24;0.36;91.96
75170;SHT31;63749;49.186;9.222;2023-02-15T05:01:49;0.46;91.55
75170;SHT31;63749;49.186;9.222;2023-02-15T05:04:15;0.50;91.60
75170;SHT31;63749;49.186;9.222;2023-02-15T05:06:41;0.46;91.60
75170;SHT31;63749;49.186;9.222;2023-02-15T05:09:07;0.49;91.60
75170;SHT31;63749;49.186;9.222;2023-02-15T05:11:32;0.43;91.47
75170;SHT31;63749;49.186;9.222;2023-02-15T05:13:57;0.38;91.95
75170;SHT31;63749;49.186;9.222;2023-02-15T05:16:23;0.28;92.22
75170;SHT31;63749;49.186;9.222;2023-02-15T05:18:48;0.29;92.12
75170;SHT31;63749;49.186;9.222;2023-02-15T05:21:14;0.25;92.33
75170;SHT31;63749;49.186;9.222;2023-02-15T05:23:41;0.23;92.31
75170;SHT31;63749;49.186;9.222;2023-02-15T05:26:10;0.16;92.48
75170;SHT31;63749;49.186;9.222;2023-02-15T05:28:54;0.18;92.70
75170;SHT31;63749;49.186;9.222;2023-02-15T05:31:20;0.18;92.68
75170;SHT31;63749;49.186;9.222;2023-02-15T05:33:47;0.13;92.72
75170;SHT31;63749;49.186;9.222;2023-02-15T05:36:13;0.08;93.14
75170;SHT31;63749;49.186;9.222;2023-02-15T05:38:41;0.01;93.41
75170;SHT31;63749;49.186;9.222;2023-02-15T05:41:08;0.06;93.66
75170;SHT31;63749;49.186;9.222;2023-02-15T05:43:34;0.16;93.47
75170;SHT31;63749;49.186;9.222;2023-02-15T05:46:00;0.28;93.08
75170;SHT31;63749;49.186;9.222;2023-02-15T05:48:26;0.20;92.81
75170;SHT31;63749;49.186;9.222;2023-02-15T05:50:59;0.19;92.77
75170;SHT31;63749;49.186;9.222;2023-02-15T05:53:26;0.25;92.83
75170;SHT31;63749;49.186;9.222;2023-02-15T05:55:51;0.20;92.61
75170;SHT31;63749;49.186;9.222;2023-02-15T05:58:17;0.22;92.62
75170;SHT31;63749;49.186;9.222;2023-02-15T06:00:42;0.26;92.53
75170;SHT31;63749;49.186;9.222;2023-02-15T06:03:08;0.26;92.63
75170;SHT31;63749;49.186;9.222;2023-02-15T06:05:35;0.23;92.70
75170;SHT31;63749;49.186;9.222;2023-02-15T06:08:02;0.16;92.88
75170;SHT31;63749;49.186;9.222;2023-02-15T06:10:27;0.13;92.93
75170;SHT31;63749;49.186;9.222;2023-02-15T06:12:53;0.20;93.01
75170;SHT31;63749;49.186;9.222;2023-02-15T06:15:18;0.25;92.95
75170;SHT31;63749;49.186;9.222;2023-02-15T06:17:43;0.23;93.03
75170;SHT31;63749;49.186;9.222;2023-02-15T06:20:10;0.20;92.85
75170;SHT31;63749;49.186;9.222;2023-02-15T06:22:36;0.57;95.56
75170;SHT31;63749;49.186;9.222;2023-02-15T06:25:01;0.68;93.64
75170;SHT31;63749;49.186;9.222;2023-02-15T06:27:27;0.73;92.24
75170;SHT31;63749;49.186;9.222;2023-02-15T06:29:52;0.71;91.83
75170;SHT31;63749;49.186;9.222;2023-02-15T06:32:17;0.64;91.38
75170;SHT31;63749;49.186;9.222;2023-02-15T06:34:42;0.57;91.52
75170;SHT31;63749;49.186;9.222;2023-02-15T06:37:08;0.57;91.32
75170;SHT31;63749;49.186;9.222;2023-02-15T06:39:33;0.60;91.56
75170;SHT31;63749;49.186;9.222;2023-02-15T06:41:59;0.85;91.90
75170;SHT31;63749;49.186;9.222;2023-02-15T06:44:24;0.92;91.07
75170;SHT31;63749;49.186;9.222;2023-02-15T06:46:50;0.67;90.87
75170;SHT31;63749;49.186;9.222;2023-02-15T06:49:15;0.53;91.74
75170;SHT31;63749;49.186;9.222;2023-02-15T06:51:40;0.63;91.04
75170;SHT31;63749;49.186;9.222;2023-02-15T06:54:06;0.53;91.25
75170;SHT31;63749;49.186;9.222;2023-02-15T06:56:31;0.40;91.28
75170;SHT31;63749;49.186;9.222;2023-02-15T06:58:56;0.39;91.68
75170;SHT31;63749;49.186;9.222;2023-02-15T07:01:22;0.67;91.58
75170;SHT31;63749;49.186;9.222;2023-02-15T07:03:48;0.66;90.85
75170;SHT31;63749;49.186;9.222;2023-02-15T07:06:13;0.54;90.82
75170;SHT31;63749;49.186;9.222;2023-02-15T07:08:39;0.59;90.88
75170;SHT31;63749;49.186;9.222;2023-02-15T07:11:06;0.42;90.94
75170;SHT31;63749;49.186;9.222;2023-02-15T07:13:50;0.49;90.93
75170;SHT31;63749;49.186;9.222;2023-02-15T07:16:17;0.52;91.20
75170;SHT31;63749;49.186;9.222;2023-02-15T07:18:43;0.49;90.81
75170;SHT31;63749;49.186;9.222;2023-02-15T07:21:08;0.46;90.99
75170;SHT31;63749;49.186;9.222;2023-02-15T07:23:38;0.38;91.00
75170;SHT31;63749;49.186;9.222;2023-02-15T07:26:04;0.33;91.66
75170;SHT31;63749;49.186;9.222;2023-02-15T07:28:30;0.26;91.77
75170;SHT31;63749;49.186;9.222;2023-02-15T07:30:57;0.25;92.13
75170;SHT31;63749;49.186;9.222;2023-02-15T07:33:23;0.35;92.18
75170;SHT31;63749;49.186;9.222;2023-02-15T07:35:53;0.40;91.68
75170;SHT31;63749;49.186;9.222;2023-02-15T07:38:19;0.39;91.56
75170;SHT31;63749;49.186;9.222;2023-02-15T07:40:45;0.30;91.59
75170;SHT31;63749;49.186;9.222;2023-02-15T07:43:11;0.40;91.53
75170;SHT31;63749;49.186;9.222;2023-02-15T07:45:37;0.43;91.16
75170;SHT31;63749;49.186;9.222;2023-02-15T07:48:05;0.43;91.02
75170;SHT31;63749;49.186;9.222;2023-02-15T07:50:31;0.33;91.50
75170;SHT31;63749;49.186;9.222;2023-02-15T07:52:57;0.45;91.18
75170;SHT31;63749;49.186;9.222;2023-02-15T07:55:24;0.45;91.23
75170;SHT31;63749;49.186;9.222;2023-02-15T07:57:50;0.61;91.10
75170;SHT31;63749;49.186;9.222;2023-02-15T08:00:17;0.60;90.78
75170;SHT31;63749;49.186;9.222;2023-02-15T08:02:56;0.63;90.52
75170;SHT31;63749;49.186;9.222;2023-02-15T08:05:43;0.88;90.14
75170;SHT31;63749;49.186;9.222;2023-02-15T08:08:09;0.77;90.10
75170;SHT31;63749;49.186;9.222;2023-02-15T08:10:58;0.94;89.80
75170;SHT31;63749;49.186;9.222;2023-02-15T08:13:44;0.95;88.97
75170;SHT31;63749;49.186;9.222;2023-02-15T08:18:47;1.09;88.90
75170;SHT31;63749;49.186;9.222;2023-02-15T08:21:13;1.21;87.66
75170;SHT31;63749;49.186;9.222;2023-02-15T08:23:38;1.17;87.78
75170;SHT31;63749;49.186;9.222;2023-02-15T08:26:04;1.11;88.44
75170;SHT31;63749;49.186;9.222;2023-02-15T08:28:29;1.05;88.64
75170;SHT31;63749;49.186;9.222;2023-02-15T08:30:55;0.99;88.67
75170;SHT31;63749;49.186;9.222;2023-02-15T08:33:20;1.04;88.69
75170;SHT31;63749;49.186;9.222;2023-02-15T08:35:45;1.04;88.76
75170;SHT31;63749;49.186;9.222;2023-02-15T08:38:12;1.19;87.86
75170;SHT31;63749;49.186;9.222;2023-02-15T08:40:38;1.15;88.52
75170;SHT31;63749;49.186;9.222;2023-02-15T08:43:03;1.34;88.01
75170;SHT31;63749;49.186;9.222;2023-02-15T08:45:29;1.38;87.56
75170;SHT31;63749;49.186;9.222;2023-02-15T08:47:55;1.29;87.33
75170;SHT31;63749;49.186;9.222;2023-02-15T08:50:20;1.28;87.91
75170;SHT31;63749;49.186;9.222;2023-02-15T08:52:47;1.34;87.41
75170;SHT31;63749;49.186;9.222;2023-02-15T08:55:12;1.42;87.69
75170;SHT31;63749;49.186;9.222;2023-02-15T08:57:38;1.62;87.33
75170;SHT31;63749;49.186;9.222;2023-02-15T09:00:10;1.63;86.37
75170;SHT31;63749;49.186;9.222;2023-02-15T09:02:37;1.73;85.77
75170;SHT31;63749;49.186;9.222;2023-02-15T09:05:02;1.42;86.92
75170;SHT31;63749;49.186;9.222;2023-02-15T09:07:28;1.55;86.73
75170;SHT31;63749;49.186;9.222;2023-02-15T09:09:55;1.80;86.55
75170;SHT31;63749;49.186;9.222;2023-02-15T09:12:21;2.04;85.42
75170;SHT31;63749;49.186;9.222;2023-02-15T09:14:46;1.87;85.44
75170;SHT31;63749;49.186;9.222;2023-02-15T09:17:11;1.83;85.10
75170;SHT31;63749;49.186;9.222;2023-02-15T09:19:37;1.88;85.11
75170;SHT31;63749;49.186;9.222;2023-02-15T09:22:02;1.87;85.09
75170;SHT31;63749;49.186;9.222;2023-02-15T09:24:31;1.97;84.89
75170;SHT31;63749;49.186;9.222;2023-02-15T09:26:57;2.00;84.60
75170;SHT31;63749;49.186;9.222;2023-02-15T09:29:23;2.10;84.71
75170;SHT31;63749;49.186;9.222;2023-02-15T09:31:49;2.15;84.15
75170;SHT31;63749;49.186;9.222;2023-02-15T09:34:18;2.28;84.03
75170;SHT31;63749;49.186;9.222;2023-02-15T09:36:44;1.97;84.93
75170;SHT31;63749;49.186;9.222;2023-02-15T09:39:18;2.06;84.57
75170;SHT31;63749;49.186;9.222;2023-02-15T09:42:02;1.88;84.98
75170;SHT31;63749;49.186;9.222;2023-02-15T09:53:21;2.50;84.15
75170;SHT31;63749;49.186;9.222;2023-02-15T10:06:42;2.92;81.72
75170;SHT31;63749;49.186;9.222;2023-02-15T10:31:23;3.74;78.36
75170;SHT31;63749;49.186;9.222;2023-02-15T10:39:42;3.75;78.67
75170;SHT31;63749;49.186;9.222;2023-02-15T10:42:35;3.51;79.30
75170;SHT31;63749;49.186;9.222;2023-02-15T10:45:32;3.83;78.74
75170;SHT31;63749;49.186;9.222;2023-02-15T10:50:52;4.64;76.24
75170;SHT31;63749;49.186;9.222;2023-02-15T10:53:45;4.17;76.89
75170;SHT31;63749;49.186;9.222;2023-02-15T10:56:34;4.53;76.12
75170;SHT31;63749;49.186;9.222;2023-02-15T11:07:33;5.70;71.71
75170;SHT31;63749;49.186;9.222;2023-02-15T11:10:30;5.70;71.73
75170;SHT31;63749;49.186;9.222;2023-02-15T11:12:58;5.57;72.29
75170;SHT31;63749;49.186;9.222;2023-02-15T11:17:57;5.05;73.17
75170;SHT31;63749;49.186;9.222;2023-02-15T11:20:30;4.99;73.90
75170;SHT31;63749;49.186;9.222;2023-02-15T11:22:57;4.98;74.15
75170;SHT31;63749;49.186;9.222;2023-02-15T11:25:30;4.81;74.77
75170;SHT31;63749;49.186;9.222;2023-02-15T11:27:56;5.00;74.03
75170;SHT31;63749;49.186;9.222;2023-02-15T11:30:25;5.06;74.08
75170;SHT31;63749;49.186;9.222;2023-02-15T11:32:57;5.02;74.15
75170;SHT31;63749;49.186;9.222;2023-02-15T11:35:54;5.16;73.81
75170;SHT31;63749;49.186;9.222;2023-02-15T11:38:24;5.50;72.84
75170;SHT31;63749;49.186;9.222;2023-02-15T11:41:06;5.87;71.67
75170;SHT31;63749;49.186;9.222;2023-02-15T11:43:43;5.97;71.09
75170;SHT31;63749;49.186;9.222;2023-02-15T11:46:11;5.79;71.18
75170;SHT31;63749;49.186;9.222;2023-02-15T11:48:37;5.91;71.16
75170;SHT31;63749;49.186;9.222;2023-02-15T11:51:04;5.77;71.43
75170;SHT31;63749;49.186;9.222;2023-02-15T11:53:33;5.78;71.98
75170;SHT31;63749;49.186;9.222;2023-02-15T11:56:00;5.84;71.35
75170;SHT31;63749;49.186;9.222;2023-02-15T11:58:50;5.64;72.27
75170;SHT31;63749;49.186;9.222;2023-02-15T12:04:38;5.60;72.66
75170;SHT31;63749;49.186;9.222;2023-02-15T12:06:44;5.48;72.68
75170;SHT31;63749;49.186;9.222;2023-02-15T12:09:29;5.54;72.77
75170;SHT31;63749;49.186;9.222;2023-02-15T12:12:21;5.60;72.51
75170;SHT31;63749;49.186;9.222;2023-02-15T12:14:50;5.60;72.47
75170;SHT31;63749;49.186;9.222;2023-02-15T12:17:16;5.43;73.23
75170;SHT31;63749;49.186;9.222;2023-02-15T12:19:44;5.36;73.41
75170;SHT31;63749;49.186;9.222;2023-02-15T12:22:23;5.08;74.34
75170;SHT31;63749;49.186;9.222;2023-02-15T12:24:50;5.19;74.60
75170;SHT31;63749;49.186;9.222;2023-02-15T12:27:29;5.26;74.50
75170;SHT31;63749;49.186;9.222;2023-02-15T12:30:01;5.25;74.00
75170;SHT31;63749;49.186;9.222;2023-02-15T12:32:47;5.29;74.10
75170;SHT31;63749;49.186;9.222;2023-02-15T12:35:20;5.27;74.22
75170;SHT31;63749;49.186;9.222;2023-02-15T12:38:02;5.30;73.89
75170;SHT31;63749;49.186;9.222;2023-02-15T12:40:30;5.47;73.94
75170;SHT31;63749;49.186;9.222;2023-02-15T12:42:56;5.44;73.66
75170;SHT31;63749;49.186;9.222;2023-02-15T12:45:29;5.47;73.60
75170;SHT31;63749;49.186;9.222;2023-02-15T12:51:07;5.60;73.72
75170;SHT31;63749;49.186;9.222;2023-02-15T12:53:35;5.47;73.73
75170;SHT31;63749;49.186;9.222;2023-02-15T12:56:06;5.65;73.16
75170;SHT31;63749;49.186;9.222;2023-02-15T13:03:36;5.63;73.82
75170;SHT31;63749;49.186;9.222;2023-02-15T13:06:05;5.81;73.43
75170;SHT31;63749;49.186;9.222;2023-02-15T13:08:46;6.05;72.87
75170;SHT31;63749;49.186;9.222;2023-02-15T13:11:39;6.11;72.75
75170;SHT31;63749;49.186;9.222;2023-02-15T13:14:20;6.32;72.82
75170;SHT31;63749;49.186;9.222;2023-02-15T13:16:50;6.49;72.24
75170;SHT31;63749;49.186;9.222;2023-02-15T13:19:42;6.52;72.43
75170;SHT31;63749;49.186;9.222;2023-02-15T13:22:20;6.50;72.91
75170;SHT31;63749;49.186;9.222;2023-02-15T13:24:48;6.69;71.71
75170;SHT31;63749;49.186;9.222;2023-02-15T13:27:21;6.83;70.97
75170;SHT31;63749;49.186;9.222;2023-02-15T13:29:50;7.35;69.45
75170;SHT31;63749;49.186;9.222;2023-02-15T13:34:57;9.71;65.39
75170;SHT31;63749;49.186;9.222;2023-02-15T13:40:22;11.36;57.40
75170;SHT31;63749;49.186;9.222;2023-02-15T13:43:05;11.89;55.22
75170;SHT31;63749;49.186;9.222;2023-02-15T13:45:38;12.53;53.75
75170;SHT31;63749;49.186;9.222;2023-02-15T13:54:28;13.95;49.30
75170;SHT31;63749;49.186;9.222;2023-02-15T14:05:14;15.74;44.30
75170;SHT31;63749;49.186;9.222;2023-02-15T14:10:36;15.22;45.12
75170;SHT31;63749;49.186;9.222;2023-02-15T14:13:43;15.73;43.58
75170;SHT31;63749;49.186;9.222;2023-02-15T14:16:20;15.01;45.89
75170;SHT31;63749;49.186;9.222;2023-02-15T14:21:31;14.81;45.57
75170;SHT31;63749;49.186;9.222;2023-02-15T14:29:53;16.07;42.82
75170;SHT31;63749;49.186;9.222;2023-02-15T14:32:33;15.71;44.21
75170;SHT31;63749;49.186;9.222;2023-02-15T14:35:03;15.82;43.19
75170;SHT31;63749;49.186;9.222;2023-02-15T14:37:58;15.53;43.92
75170;SHT31;63749;49.186;9.222;2023-02-15T14:40:48;15.47;43.62
75170;SHT31;63749;49.186;9.222;2023-02-15T14:46:16;16.22;43.12
75170;SHT31;63749;49.186;9.222;2023-02-15T14:48:51;17.11;40.50
75170;SHT31;63749;49.186;9.222;2023-02-15T14:54:05;17.30;39.71
75170;SHT31;63749;49.186;9.222;2023-02-15T14:56:31;17.60;39.63
75170;SHT31;63749;49.186;9.222;2023-02-15T14:58:59;16.01;42.60
75170;SHT31;63749;49.186;9.222;2023-02-15T15:01:32;16.07;42.67
75170;SHT31;63749;49.186;9.222;2023-02-15T15:04:02;17.24;40.47
75170;SHT31;63749;49.186;9.222;2023-02-15T15:06:32;17.64;39.74
75170;SHT31;63749;49.186;9.222;2023-02-15T15:11:40;17.37;39.90
75170;SHT31;63749;49.186;9.222;2023-02-15T15:14:07;17.03;40.85
75170;SHT31;63749;49.186;9.222;2023-02-15T15:19:10;16.73;41.74
75170;SHT31;63749;49.186;9.222;2023-02-15T15:21:55;16.80;41.48
75170;SHT31;63749;49.186;9.222;2023-02-15T15:38:56;15.35;44.46
75170;SHT31;63749;49.186;9.222;2023-02-15T15:41:41;14.20;46.98
75170;SHT31;63749;49.186;9.222;2023-02-15T15:49:40;10.80;56.56
75170;SHT31;63749;49.186;9.222;2023-02-15T15:52:15;10.22;58.58
75170;SHT31;63749;49.186;9.222;2023-02-15T15:54:43;9.47;61.10
75170;SHT31;63749;49.186;9.222;2023-02-15T15:57:57;8.87;63.40
75170;SHT31;63749;49.186;9.222;2023-02-15T16:02:53;8.23;66.16
75170;SHT31;63749;49.186;9.222;2023-02-15T16:05:19;7.95;67.27
75170;SHT31;63749;49.186;9.222;2023-02-15T16:07:45;7.70;68.20
75170;SHT31;63749;49.186;9.222;2023-02-15T16:10:23;7.42;69.49
75170;SHT31;63749;49.186;9.222;2023-02-15T16:12:49;7.26;70.15
75170;SHT31;63749;49.186;9.222;2023-02-15T16:15:18;7.18;70.69
75170;SHT31;63749;49.186;9.222;2023-02-15T16:17:46;7.01;71.56
75170;SHT31;63749;49.186;9.222;2023-02-15T16:20:19;6.79;72.52
75170;SHT31;63749;49.186;9.222;2023-02-15T16:22:48;6.64;72.68
75170;SHT31;63749;49.186;9.222;2023-02-15T16:25:29;6.42;73.58
75170;SHT31;63749;49.186;9.222;2023-02-15T16:27:56;6.25;74.06
75170;SHT31;63749;49.186;9.222;2023-02-15T16:30:30;6.12;74.77
75170;SHT31;63749;49.186;9.222;2023-02-15T16:33:11;5.90;75.49
75170;SHT31;63749;49.186;9.222;2023-02-15T16:35:39;5.77;75.67
75170;SHT31;63749;49.186;9.222;2023-02-15T16:38:05;5.60;76.51
75170;SHT31;63749;49.186;9.222;2023-02-15T16:40:46;5.43;76.79
75170;SHT31;63749;49.186;9.222;2023-02-15T16:43:22;5.29;77.60
75170;SHT31;63749;49.186;9.222;2023-02-15T16:46:11;5.15;78.64
75170;SHT31;63749;49.186;9.222;2023-02-15T16:48:42;5.02;78.50
75170;SHT31;63749;49.186;9.222;2023-02-15T16:51:08;4.96;78.97
75170;SHT31;63749;49.186;9.222;2023-02-15T16:53:34;4.86;79.02
75170;SHT31;63749;49.186;9.222;2023-02-15T16:56:04;4.75;79.40
75170;SHT31;63749;49.186;9.222;2023-02-15T16:58:59;4.64;80.41
75170;SHT31;63749;49.186;9.222;2023-02-15T17:01:30;4.62;80.59
75170;SHT31;63749;49.186;9.222;2023-02-15T17:09:28;4.48;81.02
75170;SHT31;63749;49.186;9.222;2023-02-15T17:11:53;4.38;81.34
75170;SHT31;63749;49.186;9.222;2023-02-15T17:14:21;4.27;81.74
75170;SHT31;63749;49.186;9.222;2023-02-15T17:16:53;4.16;82.11
75170;SHT31;63749;49.186;9.222;2023-02-15T17:19:23;4.03;82.78
75170;SHT31;63749;49.186;9.222;2023-02-15T17:21:52;3.92;83.28
75170;SHT31;63749;49.186;9.222;2023-02-15T17:24:25;3.87;83.60
75170;SHT31;63749;49.186;9.222;2023-02-15T17:26:55;3.87;84.27
75170;SHT31;63749;49.186;9.222;2023-02-15T17:29:36;3.85;84.52
75170;SHT31;63749;49.186;9.222;2023-02-15T17:32:03;3.75;84.35
75170;SHT31;63749;49.186;9.222;2023-02-15T17:39:47;3.81;84.68
75170;SHT31;63749;49.186;9.222;2023-02-15T17:42:13;3.72;84.93
75170;SHT31;63749;49.186;9.222;2023-02-15T17:44:38;3.68;85.55
75170;SHT31;63749;49.186;9.222;2023-02-15T17:47:03;3.69;86.20
75170;SHT31;63749;49.186;9.222;2023-02-15T17:49:30;4.14;89.73
75170;SHT31;63749;49.186;9.222;2023-02-15T17:52:01;4.41;87.75
75170;SHT31;63749;49.186;9.222;2023-02-15T17:54:27;4.68;87.66
75170;SHT31;63749;49.186;9.222;2023-02-15T17:57:13;4.60;85.62
75170;SHT31;63749;49.186;9.222;2023-02-15T17:59:38;4.27;84.91
75170;SHT31;63749;49.186;9.222;2023-02-15T18:02:22;3.97;86.58
75170;SHT31;63749;49.186;9.222;2023-02-15T18:05:13;3.78;87.52
75170;SHT31;63749;49.186;9.222;2023-02-15T18:07:58;4.40;88.89
75170;SHT31;63749;49.186;9.222;2023-02-15T18:11:00;4.51;87.68
75170;SHT31;63749;49.186;9.222;2023-02-15T18:13:42;4.27;85.79
75170;SHT31;63749;49.186;9.222;2023-02-15T18:29:10;4.34;87.97
75170;SHT31;63749;49.186;9.222;2023-02-15T18:31:35;4.55;87.47
75170;SHT31;63749;49.186;9.222;2023-02-15T18:34:01;3.92;85.68
75170;SHT31;63749;49.186;9.222;2023-02-15T18:36:30;3.41;86.32
75170;SHT31;63749;49.186;9.222;2023-02-15T18:38:57;3.14;87.33
75170;SHT31;63749;49.186;9.222;2023-02-15T18:41:23;2.87;88.02
75170;SHT31;63749;49.186;9.222;2023-02-15T18:43:49;2.69;88.78
75170;SHT31;63749;49.186;9.222;2023-02-15T18:46:17;2.52;89.05
75170;SHT31;63749;49.186;9.222;2023-02-15T18:48:43;2.39;89.45
75170;SHT31;63749;49.186;9.222;2023-02-15T18:53:41;2.18;90.01
75170;SHT31;63749;49.186;9.222;2023-02-15T18:56:12;2.15;90.37
75170;SHT31;63749;49.186;9.222;2023-02-15T18:58:40;2.03;90.64
75170;SHT31;63749;49.186;9.222;2023-02-15T19:01:15;1.98;90.92
75170;SHT31;63749;49.186;9.222;2023-02-15T19:03:49;1.94;91.03
75170;SHT31;63749;49.186;9.222;2023-02-15T19:06:17;1.86;91.16
75170;SHT31;63749;49.186;9.222;2023-02-15T19:08:45;1.79;91.33
75170;SHT31;63749;49.186;9.222;2023-02-15T19:11:22;1.71;91.44
75170;SHT31;63749;49.186;9.222;2023-02-15T19:13:51;1.66;91.71
75170;SHT31;63749;49.186;9.222;2023-02-15T19:16:34;1.63;91.57
75170;SHT31;63749;49.186;9.222;2023-02-15T19:19:00;1.60;91.50
75170;SHT31;63749;49.186;9.222;2023-02-15T19:21:27;1.55;91.82
75170;SHT31;63749;49.186;9.222;2023-02-15T19:24:01;1.52;91.99